Bondville, IL (61815)

1:16 PM CDT on May 24, 2015 (GMT -0500)
Weidengarten | | Change Station
CLOSE
Current Station
Personal Weather Station
Location: Champaign, IL
Elevation: 712 ft
Nearby Weather Stations

Elev 712 ft 40.14 °N, 88.35 °W | Updated 8 minutes ago

Partly Cloudy
Partly Cloudy
82.8 °F
Feels Like 84 °F
N
7.4
Wind Variable Wind from SE
Gusts 9.8 mph

Today
High -- | Low -- °F
--% Chance of Precip.
Yesterday
High -- | Low -- °F
Precip. -- in
5:30 AM 8:10 PM
Waxing Crescent, 41% visible
Pressure 30.06 in
Visibility 10.0 miles
Clouds Scattered Clouds 4800 ft
Mostly Cloudy 6000 ft
Heat Index 84 °F
Dew Point 63 °F
Humidity 52%
Rainfall 0.00 in
Snow Depth Not available.
UV 4.0 out of 12
Pollen 9.90 out of 12
Air Quality Not available.
Flu Activity Sporadic
METAR KCMI 241753Z 17019G27KT 10SM SCT048 BKN060 29/16 A3007 RMK AO2 PK WND 18028/1714 SLP179 T02940156 10300 20189 57018

More Conditions Fewer Conditions

Pressure 30.06 in
Visibility 10.0 miles
Clouds Scattered Clouds 4800 ft
Mostly Cloudy 6000 ft
Heat Index 84 °F
Dew Point 63 °F
Humidity 52%
Rainfall 0.00 in
Snow Depth Not available.
UV 4.0 out of 12
Pollen 9.90 out of 12
Air Quality Not available.
Flu Activity Sporadic
METAR KCMI 241753Z 17019G27KT 10SM SCT048 BKN060 29/16 A3007 RMK AO2 PK WND 18028/1714 SLP179 T02940156 10300 20189 57018

More Conditions Fewer Conditions

10-Day Weather Forecast

Almanac

Astronomy

May. 24, 2015 Rise Set
Actual Time
Civil Twilight
Nautical Twilight
Astronomical Twilight
Moon
Length of Visible Light
Length of Day
Tomorrow will be .
, % of the Moon is Illuminated

Today's Extremes

State Highs State Lows

Community

WunderPhotos

Upload Photos

1,823,817 photos uploaded!

WunderBlogs® & News

Nearby

Air Quality

  Air Quality AQ Index Pollutant
Not available.

Snow Depth

Station Depth Elevation

Earthquake Activity

City Distance Mag. Time & Date
Minimum magnitude displayed is 2.5.

Coastal Water Temperatures

Place Temperature

Stations

Nearby Weather Stations

Station Location Temp. Windchill Dew Point Humidity Wind Precip. Elev Updated Type